Terminal Aerodrome Forecast
Issued by NWS

Home | Current Version | Previous Version | Graphics & Text | Print | Product List | Glossary Off
Versions: 1 2 3 4 5 6 7 8 9 10 11 12 13 14 15 16 17 18 19 20 21 22 23 24 25 26 27 28 29 30 31 32 33 34 35 36 37 38 39 40

000
FTUS43 KGRB 221700
TAFRHI
TAF
KRHI 221722Z 2218/2318 14008KT 1 1/2SM BR OVC003
      TEMPO 2222/2302 3SM -SN BR SCT003 OVC008
     FM230200 08008KT 2SM -SN BR SCT003 OVC007 WS015/11030KT
     FM231000 07008KT 1 1/2SM -SNPL BR OVC003 WS015/11035KT
     FM231500 06007KT 1 1/2SM -SN OVC004=

USA.gov is the U.S. government's official web portal to all federal, state and local government web resources and services.